Conotton, Ohio
Current Conditions -  °F | °C
As of 8:53 AM on Monday 22 Dec 2014 (Local Time) from KPHD Reporting Station
Haze Haze  
Wind Chill: 24°   Ceiling: Unl
Heat Index: 24°   Visibility: 5mi
Dew Point: 20°   Wind: 0mph
Humidity: 84%   Direction: NA
Pressure: 30.11"   Gusts: NA
Location:  40.4357°N, 81.1746°W
Report Text: KPHD 221353Z AUTO 00000KT 5SM BR SCT049 M04/M07 A3011 RMK AO2 SLP207 T10441067
Loading
Personal Weather Stations






























Interactive Weather Map New forecast layout! Learn more

10-Day Weather Forecast

Advertisements
Track Severe Weather on mobile